sensor_id;sensor_type;location;lat;lon;timestamp;P1;durP1;ratioP1;P2;durP2;ratioP2
28960;SDS011;16068;42.896;20.868;2023-05-28T00:00:15;15.65;;;12.18;;
28960;SDS011;16068;42.896;20.868;2023-05-28T00:03:03;18.13;;;13.20;;
28960;SDS011;16068;42.896;20.868;2023-05-28T00:05:49;17.15;;;11.95;;
28960;SDS011;16068;42.896;20.868;2023-05-28T00:08:37;17.60;;;11.85;;
28960;SDS011;16068;42.896;20.868;2023-05-28T00:11:23;17.50;;;11.73;;
28960;SDS011;16068;42.896;20.868;2023-05-28T00:14:09;20.00;;;11.93;;
28960;SDS011;16068;42.896;20.868;2023-05-28T00:16:56;12.40;;;10.75;;
28960;SDS011;16068;42.896;20.868;2023-05-28T00:19:41;17.85;;;11.75;;
28960;SDS011;16068;42.896;20.868;2023-05-28T00:22:28;13.65;;;11.20;;
28960;SDS011;16068;42.896;20.868;2023-05-28T00:25:14;16.55;;;10.95;;
28960;SDS011;16068;42.896;20.868;2023-05-28T00:28:00;19.80;;;11.20;;
28960;SDS011;16068;42.896;20.868;2023-05-28T00:30:46;12.45;;;10.88;;
28960;SDS011;16068;42.896;20.868;2023-05-28T00:33:32;17.33;;;11.80;;
28960;SDS011;16068;42.896;20.868;2023-05-28T00:36:18;12.35;;;10.98;;
28960;SDS011;16068;42.896;20.868;2023-05-28T00:39:04;14.93;;;11.90;;
28960;SDS011;16068;42.896;20.868;2023-05-28T00:41:59;16.30;;;11.30;;
28960;SDS011;16068;42.896;20.868;2023-05-28T00:44:56;13.32;;;11.65;;
28960;SDS011;16068;42.896;20.868;2023-05-28T00:47:42;14.02;;;12.00;;
28960;SDS011;16068;42.896;20.868;2023-05-28T00:50:29;15.75;;;11.85;;
28960;SDS011;16068;42.896;20.868;2023-05-28T00:53:15;17.88;;;11.45;;
28960;SDS011;16068;42.896;20.868;2023-05-28T00:56:02;14.35;;;11.93;;
28960;SDS011;16068;42.896;20.868;2023-05-28T00:58:48;15.52;;;12.10;;
28960;SDS011;16068;42.896;20.868;2023-05-28T01:01:34;15.88;;;12.00;;
28960;SDS011;16068;42.896;20.868;2023-05-28T01:04:22;15.68;;;12.07;;
28960;SDS011;16068;42.896;20.868;2023-05-28T01:07:10;20.15;;;11.35;;
28960;SDS011;16068;42.896;20.868;2023-05-28T01:09:56;13.10;;;11.30;;
28960;SDS011;16068;42.896;20.868;2023-05-28T01:12:43;15.80;;;12.10;;
28960;SDS011;16068;42.896;20.868;2023-05-28T01:15:30;14.65;;;11.05;;
28960;SDS011;16068;42.896;20.868;2023-05-28T01:18:16;16.70;;;11.10;;
28960;SDS011;16068;42.896;20.868;2023-05-28T01:21:02;13.43;;;10.23;;
28960;SDS011;16068;42.896;20.868;2023-05-28T01:23:49;14.23;;;10.48;;
28960;SDS011;16068;42.896;20.868;2023-05-28T01:26:37;14.23;;;10.88;;
28960;SDS011;16068;42.896;20.868;2023-05-28T01:29:24;19.42;;;11.13;;
28960;SDS011;16068;42.896;20.868;2023-05-28T01:32:10;12.27;;;10.98;;
28960;SDS011;16068;42.896;20.868;2023-05-28T01:34:56;14.00;;;10.88;;
28960;SDS011;16068;42.896;20.868;2023-05-28T01:37:47;13.88;;;11.05;;
28960;SDS011;16068;42.896;20.868;2023-05-28T01:40:43;12.77;;;10.70;;
28960;SDS011;16068;42.896;20.868;2023-05-28T01:43:29;13.55;;;12.05;;
28960;SDS011;16068;42.896;20.868;2023-05-28T01:46:15;21.13;;;11.95;;
28960;SDS011;16068;42.896;20.868;2023-05-28T01:49:01;16.58;;;11.85;;
28960;SDS011;16068;42.896;20.868;2023-05-28T01:51:49;13.50;;;11.27;;
28960;SDS011;16068;42.896;20.868;2023-05-28T01:54:36;16.10;;;12.35;;
28960;SDS011;16068;42.896;20.868;2023-05-28T01:57:22;16.52;;;11.73;;
28960;SDS011;16068;42.896;20.868;2023-05-28T02:00:09;15.50;;;11.90;;
28960;SDS011;16068;42.896;20.868;2023-05-28T02:03:02;15.45;;;11.02;;
28960;SDS011;16068;42.896;20.868;2023-05-28T02:05:51;14.10;;;12.15;;
28960;SDS011;16068;42.896;20.868;2023-05-28T02:08:37;12.88;;;11.10;;
28960;SDS011;16068;42.896;20.868;2023-05-28T02:11:23;13.90;;;11.40;;
28960;SDS011;16068;42.896;20.868;2023-05-28T02:14:12;17.77;;;11.30;;
28960;SDS011;16068;42.896;20.868;2023-05-28T02:17:01;16.52;;;11.90;;
28960;SDS011;16068;42.896;20.868;2023-05-28T02:19:47;13.82;;;10.77;;
28960;SDS011;16068;42.896;20.868;2023-05-28T02:22:32;16.85;;;11.43;;
28960;SDS011;16068;42.896;20.868;2023-05-28T02:25:18;15.25;;;11.43;;
28960;SDS011;16068;42.896;20.868;2023-05-28T02:28:06;16.30;;;11.48;;
28960;SDS011;16068;42.896;20.868;2023-05-28T02:30:52;13.63;;;11.18;;
28960;SDS011;16068;42.896;20.868;2023-05-28T02:33:40;14.35;;;11.50;;
28960;SDS011;16068;42.896;20.868;2023-05-28T02:36:27;14.63;;;11.60;;
28960;SDS011;16068;42.896;20.868;2023-05-28T02:39:15;28.50;;;13.00;;
28960;SDS011;16068;42.896;20.868;2023-05-28T02:42:02;16.40;;;13.00;;
28960;SDS011;16068;42.896;20.868;2023-05-28T02:44:48;19.42;;;12.82;;
28960;SDS011;16068;42.896;20.868;2023-05-28T02:47:37;12.90;;;10.77;;
28960;SDS011;16068;42.896;20.868;2023-05-28T02:50:24;14.40;;;11.90;;
28960;SDS011;16068;42.896;20.868;2023-05-28T02:53:20;14.93;;;12.00;;
28960;SDS011;16068;42.896;20.868;2023-05-28T02:56:08;16.58;;;11.77;;
28960;SDS011;16068;42.896;20.868;2023-05-28T02:58:58;20.92;;;13.15;;
28960;SDS011;16068;42.896;20.868;2023-05-28T03:01:44;18.75;;;12.52;;
28960;SDS011;16068;42.896;20.868;2023-05-28T03:04:32;22.98;;;12.02;;
28960;SDS011;16068;42.896;20.868;2023-05-28T03:07:21;14.25;;;11.82;;
28960;SDS011;16068;42.896;20.868;2023-05-28T03:10:07;16.27;;;12.48;;
28960;SDS011;16068;42.896;20.868;2023-05-28T03:12:53;18.17;;;11.82;;
28960;SDS011;16068;42.896;20.868;2023-05-28T03:15:40;16.90;;;11.70;;
28960;SDS011;16068;42.896;20.868;2023-05-28T03:18:26;15.20;;;11.93;;
28960;SDS011;16068;42.896;20.868;2023-05-28T03:21:12;13.75;;;12.05;;
28960;SDS011;16068;42.896;20.868;2023-05-28T03:23:59;14.25;;;11.82;;
28960;SDS011;16068;42.896;20.868;2023-05-28T03:26:59;15.23;;;12.13;;
28960;SDS011;16068;42.896;20.868;2023-05-28T03:29:46;17.25;;;12.50;;
28960;SDS011;16068;42.896;20.868;2023-05-28T03:32:39;18.48;;;13.15;;
28960;SDS011;16068;42.896;20.868;2023-05-28T03:35:25;14.40;;;12.30;;
28960;SDS011;16068;42.896;20.868;2023-05-28T03:38:11;18.08;;;12.85;;
28960;SDS011;16068;42.896;20.868;2023-05-28T03:40:57;16.80;;;13.75;;
28960;SDS011;16068;42.896;20.868;2023-05-28T03:43:44;17.23;;;12.82;;
28960;SDS011;16068;42.896;20.868;2023-05-28T03:46:30;17.25;;;13.02;;
28960;SDS011;16068;42.896;20.868;2023-05-28T03:49:16;16.50;;;13.32;;
28960;SDS011;16068;42.896;20.868;2023-05-28T03:52:03;17.20;;;13.68;;
28960;SDS011;16068;42.896;20.868;2023-05-28T03:55:00;17.95;;;14.40;;
28960;SDS011;16068;42.896;20.868;2023-05-28T03:57:46;18.27;;;13.27;;
28960;SDS011;16068;42.896;20.868;2023-05-28T04:00:34;15.60;;;13.85;;
28960;SDS011;16068;42.896;20.868;2023-05-28T04:03:20;18.67;;;14.48;;
28960;SDS011;16068;42.896;20.868;2023-05-28T04:06:08;17.77;;;14.80;;
28960;SDS011;16068;42.896;20.868;2023-05-28T04:08:55;18.50;;;13.77;;
28960;SDS011;16068;42.896;20.868;2023-05-28T04:11:41;16.85;;;13.38;;
28960;SDS011;16068;42.896;20.868;2023-05-28T04:14:30;18.40;;;13.57;;
28960;SDS011;16068;42.896;20.868;2023-05-28T04:17:17;17.92;;;14.07;;
28960;SDS011;16068;42.896;20.868;2023-05-28T04:20:06;22.52;;;13.98;;
28960;SDS011;16068;42.896;20.868;2023-05-28T04:22:52;27.98;;;14.98;;
28960;SDS011;16068;42.896;20.868;2023-05-28T04:25:39;22.88;;;14.70;;
28960;SDS011;16068;42.896;20.868;2023-05-28T04:28:26;19.23;;;14.00;;
28960;SDS011;16068;42.896;20.868;2023-05-28T04:31:13;14.38;;;12.88;;
28960;SDS011;16068;42.896;20.868;2023-05-28T04:33:59;18.40;;;14.48;;
28960;SDS011;16068;42.896;20.868;2023-05-28T04:36:45;21.52;;;13.73;;
28960;SDS011;16068;42.896;20.868;2023-05-28T04:39:35;23.45;;;14.52;;
28960;SDS011;16068;42.896;20.868;2023-05-28T04:42:21;32.92;;;15.60;;
28960;SDS011;16068;42.896;20.868;2023-05-28T04:45:07;16.80;;;13.55;;
28960;SDS011;16068;42.896;20.868;2023-05-28T04:47:54;21.27;;;13.70;;
28960;SDS011;16068;42.896;20.868;2023-05-28T04:50:41;24.13;;;14.02;;
28960;SDS011;16068;42.896;20.868;2023-05-28T04:53:27;17.58;;;12.95;;
28960;SDS011;16068;42.896;20.868;2023-05-28T04:56:13;17.55;;;13.43;;
28960;SDS011;16068;42.896;20.868;2023-05-28T04:59:00;18.83;;;14.38;;
28960;SDS011;16068;42.896;20.868;2023-05-28T05:01:49;21.20;;;14.23;;
28960;SDS011;16068;42.896;20.868;2023-05-28T05:04:36;19.17;;;13.93;;
28960;SDS011;16068;42.896;20.868;2023-05-28T05:07:21;19.63;;;12.32;;
28960;SDS011;16068;42.896;20.868;2023-05-28T05:10:09;23.70;;;13.52;;
28960;SDS011;16068;42.896;20.868;2023-05-28T05:12:55;16.17;;;12.98;;
28960;SDS011;16068;42.896;20.868;2023-05-28T05:15:45;25.13;;;13.02;;
28960;SDS011;16068;42.896;20.868;2023-05-28T05:18:38;19.15;;;13.88;;
28960;SDS011;16068;42.896;20.868;2023-05-28T05:21:25;19.10;;;13.38;;
28960;SDS011;16068;42.896;20.868;2023-05-28T05:24:11;19.45;;;13.27;;
28960;SDS011;16068;42.896;20.868;2023-05-28T05:26:57;23.58;;;13.85;;
28960;SDS011;16068;42.896;20.868;2023-05-28T05:29:43;20.88;;;12.02;;
28960;SDS011;16068;42.896;20.868;2023-05-28T05:32:29;19.55;;;13.05;;
28960;SDS011;16068;42.896;20.868;2023-05-28T05:35:16;16.33;;;12.93;;
28960;SDS011;16068;42.896;20.868;2023-05-28T05:38:22;17.88;;;13.32;;
28960;SDS011;16068;42.896;20.868;2023-05-28T05:41:27;17.40;;;13.07;;
28960;SDS011;16068;42.896;20.868;2023-05-28T05:44:32;33.45;;;13.60;;
28960;SDS011;16068;42.896;20.868;2023-05-28T05:47:18;15.85;;;12.65;;
28960;SDS011;16068;42.896;20.868;2023-05-28T05:50:04;20.20;;;13.18;;
28960;SDS011;16068;42.896;20.868;2023-05-28T05:52:51;18.60;;;13.18;;
28960;SDS011;16068;42.896;20.868;2023-05-28T05:55:37;21.95;;;14.40;;
28960;SDS011;16068;42.896;20.868;2023-05-28T05:58:24;16.20;;;13.02;;
28960;SDS011;16068;42.896;20.868;2023-05-28T06:01:11;18.13;;;12.88;;
28960;SDS011;16068;42.896;20.868;2023-05-28T06:04:02;15.20;;;13.48;;
28960;SDS011;16068;42.896;20.868;2023-05-28T06:06:58;17.08;;;13.25;;
28960;SDS011;16068;42.896;20.868;2023-05-28T06:10:09;19.70;;;14.07;;
28960;SDS011;16068;42.896;20.868;2023-05-28T06:12:57;16.95;;;13.65;;
28960;SDS011;16068;42.896;20.868;2023-05-28T06:15:48;19.20;;;13.23;;
28960;SDS011;16068;42.896;20.868;2023-05-28T06:18:34;43.90;;;15.55;;
28960;SDS011;16068;42.896;20.868;2023-05-28T06:21:24;18.75;;;13.18;;
28960;SDS011;16068;42.896;20.868;2023-05-28T06:24:10;16.58;;;13.80;;
28960;SDS011;16068;42.896;20.868;2023-05-28T06:26:57;23.02;;;13.65;;
28960;SDS011;16068;42.896;20.868;2023-05-28T06:29:43;26.23;;;14.52;;
28960;SDS011;16068;42.896;20.868;2023-05-28T06:32:30;22.33;;;13.77;;
28960;SDS011;16068;42.896;20.868;2023-05-28T06:35:27;23.55;;;13.55;;
28960;SDS011;16068;42.896;20.868;2023-05-28T06:38:14;27.70;;;13.70;;
28960;SDS011;16068;42.896;20.868;2023-05-28T06:41:01;21.60;;;14.13;;
28960;SDS011;16068;42.896;20.868;2023-05-28T06:43:53;20.20;;;13.77;;
28960;SDS011;16068;42.896;20.868;2023-05-28T06:47:02;20.77;;;15.60;;
28960;SDS011;16068;42.896;20.868;2023-05-28T06:49:48;20.20;;;15.05;;
28960;SDS011;16068;42.896;20.868;2023-05-28T06:52:35;26.50;;;14.48;;
28960;SDS011;16068;42.896;20.868;2023-05-28T06:55:21;18.48;;;14.50;;
28960;SDS011;16068;42.896;20.868;2023-05-28T06:58:40;19.58;;;14.15;;
28960;SDS011;16068;42.896;20.868;2023-05-28T07:01:52;18.98;;;13.80;;
28960;SDS011;16068;42.896;20.868;2023-05-28T07:05:04;17.50;;;13.55;;
28960;SDS011;16068;42.896;20.868;2023-05-28T07:07:53;16.40;;;13.25;;
28960;SDS011;16068;42.896;20.868;2023-05-28T07:10:41;20.85;;;12.48;;
28960;SDS011;16068;42.896;20.868;2023-05-28T07:13:27;15.60;;;12.57;;
28960;SDS011;16068;42.896;20.868;2023-05-28T07:16:14;19.38;;;13.55;;
28960;SDS011;16068;42.896;20.868;2023-05-28T07:19:01;15.68;;;12.73;;
28960;SDS011;16068;42.896;20.868;2023-05-28T07:21:47;14.50;;;11.57;;
28960;SDS011;16068;42.896;20.868;2023-05-28T07:24:34;14.85;;;12.52;;
28960;SDS011;16068;42.896;20.868;2023-05-28T07:27:20;14.73;;;12.02;;
28960;SDS011;16068;42.896;20.868;2023-05-28T07:30:07;14.65;;;11.45;;
28960;SDS011;16068;42.896;20.868;2023-05-28T07:32:54;11.98;;;10.77;;
28960;SDS011;16068;42.896;20.868;2023-05-28T07:35:41;20.35;;;11.13;;
28960;SDS011;16068;42.896;20.868;2023-05-28T07:38:27;17.45;;;12.07;;
28960;SDS011;16068;42.896;20.868;2023-05-28T07:41:16;16.77;;;12.18;;
28960;SDS011;16068;42.896;20.868;2023-05-28T07:44:07;16.98;;;11.05;;
28960;SDS011;16068;42.896;20.868;2023-05-28T07:46:54;17.15;;;10.15;;
28960;SDS011;16068;42.896;20.868;2023-05-28T07:50:03;10.88;;;9.77;;
28960;SDS011;16068;42.896;20.868;2023-05-28T07:53:09;13.38;;;9.25;;
28960;SDS011;16068;42.896;20.868;2023-05-28T07:55:55;12.90;;;9.82;;
28960;SDS011;16068;42.896;20.868;2023-05-28T07:58:43;13.63;;;9.68;;
28960;SDS011;16068;42.896;20.868;2023-05-28T08:01:31;13.02;;;9.85;;
28960;SDS011;16068;42.896;20.868;2023-05-28T08:04:22;14.48;;;9.57;;
28960;SDS011;16068;42.896;20.868;2023-05-28T08:07:08;14.10;;;10.18;;
28960;SDS011;16068;42.896;20.868;2023-05-28T08:09:58;18.52;;;9.73;;
28960;SDS011;16068;42.896;20.868;2023-05-28T08:12:44;14.15;;;9.98;;
28960;SDS011;16068;42.896;20.868;2023-05-28T08:15:31;12.43;;;10.07;;
28960;SDS011;16068;42.896;20.868;2023-05-28T08:18:18;14.45;;;10.63;;
28960;SDS011;16068;42.896;20.868;2023-05-28T08:21:05;15.02;;;10.05;;
28960;SDS011;16068;42.896;20.868;2023-05-28T08:23:54;20.40;;;10.48;;
28960;SDS011;16068;42.896;20.868;2023-05-28T08:26:40;36.97;;;23.48;;
28960;SDS011;16068;42.896;20.868;2023-05-28T08:29:30;22.08;;;17.45;;
28960;SDS011;16068;42.896;20.868;2023-05-28T08:32:21;32.78;;;21.35;;
28960;SDS011;16068;42.896;20.868;2023-05-28T08:35:08;28.30;;;20.10;;
28960;SDS011;16068;42.896;20.868;2023-05-28T08:37:55;27.38;;;19.02;;
28960;SDS011;16068;42.896;20.868;2023-05-28T08:40:49;18.98;;;12.85;;
28960;SDS011;16068;42.896;20.868;2023-05-28T08:43:41;20.35;;;11.95;;
28960;SDS011;16068;42.896;20.868;2023-05-28T08:46:28;20.48;;;11.15;;
28960;SDS011;16068;42.896;20.868;2023-05-28T08:49:45;18.00;;;9.65;;
28960;SDS011;16068;42.896;20.868;2023-05-28T08:52:48;32.92;;;10.35;;
28960;SDS011;16068;42.896;20.868;2023-05-28T08:55:35;19.50;;;8.48;;
28960;SDS011;16068;42.896;20.868;2023-05-28T08:58:48;12.50;;;8.75;;
28960;SDS011;16068;42.896;20.868;2023-05-28T09:01:34;14.85;;;8.93;;
28960;SDS011;16068;42.896;20.868;2023-05-28T09:04:24;11.02;;;8.50;;
28960;SDS011;16068;42.896;20.868;2023-05-28T09:07:13;13.02;;;8.50;;
28960;SDS011;16068;42.896;20.868;2023-05-28T09:10:09;17.05;;;9.68;;
28960;SDS011;16068;42.896;20.868;2023-05-28T09:13:00;20.30;;;9.20;;
28960;SDS011;16068;42.896;20.868;2023-05-28T09:15:52;12.35;;;8.98;;
28960;SDS011;16068;42.896;20.868;2023-05-28T09:18:39;11.37;;;8.67;;
28960;SDS011;16068;42.896;20.868;2023-05-28T09:21:27;28.52;;;9.85;;
28960;SDS011;16068;42.896;20.868;2023-05-28T09:24:16;22.98;;;9.70;;
28960;SDS011;16068;42.896;20.868;2023-05-28T09:27:26;24.73;;;9.98;;
28960;SDS011;16068;42.896;20.868;2023-05-28T09:30:13;12.13;;;8.75;;
28960;SDS011;16068;42.896;20.868;2023-05-28T09:33:03;19.95;;;9.05;;
28960;SDS011;16068;42.896;20.868;2023-05-28T09:35:58;15.77;;;9.10;;
28960;SDS011;16068;42.896;20.868;2023-05-28T09:38:46;19.83;;;9.95;;
28960;SDS011;16068;42.896;20.868;2023-05-28T09:41:37;11.23;;;9.00;;
28960;SDS011;16068;42.896;20.868;2023-05-28T09:44:30;11.57;;;9.20;;
28960;SDS011;16068;42.896;20.868;2023-05-28T09:47:20;19.75;;;10.73;;
28960;SDS011;16068;42.896;20.868;2023-05-28T09:50:07;21.95;;;12.40;;
28960;SDS011;16068;42.896;20.868;2023-05-28T09:52:54;24.88;;;12.82;;
28960;SDS011;16068;42.896;20.868;2023-05-28T09:55:43;25.05;;;14.40;;
28960;SDS011;16068;42.896;20.868;2023-05-28T09:58:33;28.92;;;15.43;;
28960;SDS011;16068;42.896;20.868;2023-05-28T10:01:20;20.65;;;12.25;;
28960;SDS011;16068;42.896;20.868;2023-05-28T10:04:11;17.13;;;10.98;;
28960;SDS011;16068;42.896;20.868;2023-05-28T10:07:00;19.45;;;11.48;;
28960;SDS011;16068;42.896;20.868;2023-05-28T10:09:50;22.63;;;11.00;;
28960;SDS011;16068;42.896;20.868;2023-05-28T10:12:36;15.32;;;11.05;;
28960;SDS011;16068;42.896;20.868;2023-05-28T10:15:26;21.80;;;15.05;;
28960;SDS011;16068;42.896;20.868;2023-05-28T10:18:13;22.35;;;15.60;;
28960;SDS011;16068;42.896;20.868;2023-05-28T10:21:02;34.30;;;16.88;;
28960;SDS011;16068;42.896;20.868;2023-05-28T10:23:48;26.00;;;16.00;;
28960;SDS011;16068;42.896;20.868;2023-05-28T10:26:34;29.35;;;16.58;;
28960;SDS011;16068;42.896;20.868;2023-05-28T10:29:20;38.65;;;19.70;;
28960;SDS011;16068;42.896;20.868;2023-05-28T10:32:06;27.42;;;17.27;;
28960;SDS011;16068;42.896;20.868;2023-05-28T10:34:58;23.83;;;15.82;;
28960;SDS011;16068;42.896;20.868;2023-05-28T10:37:47;24.70;;;15.48;;
28960;SDS011;16068;42.896;20.868;2023-05-28T10:40:34;26.13;;;15.70;;
28960;SDS011;16068;42.896;20.868;2023-05-28T10:49:16;31.80;;;18.63;;
28960;SDS011;16068;42.896;20.868;2023-05-28T10:52:02;25.02;;;15.80;;
28960;SDS011;16068;42.896;20.868;2023-05-28T10:54:50;22.95;;;15.55;;
28960;SDS011;16068;42.896;20.868;2023-05-28T11:00:34;26.20;;;16.50;;
28960;SDS011;16068;42.896;20.868;2023-05-28T11:03:39;23.25;;;15.95;;
28960;SDS011;16068;42.896;20.868;2023-05-28T11:06:33;26.35;;;15.77;;
28960;SDS011;16068;42.896;20.868;2023-05-28T11:09:25;20.10;;;14.75;;
28960;SDS011;16068;42.896;20.868;2023-05-28T11:12:12;25.92;;;17.10;;
28960;SDS011;16068;42.896;20.868;2023-05-28T11:15:00;25.48;;;15.75;;
28960;SDS011;16068;42.896;20.868;2023-05-28T11:17:46;27.67;;;17.25;;
28960;SDS011;16068;42.896;20.868;2023-05-28T11:20:33;29.17;;;17.50;;
28960;SDS011;16068;42.896;20.868;2023-05-28T11:23:19;36.58;;;24.10;;
28960;SDS011;16068;42.896;20.868;2023-05-28T11:26:06;29.70;;;19.67;;
28960;SDS011;16068;42.896;20.868;2023-05-28T11:29:08;29.20;;;18.23;;
28960;SDS011;16068;42.896;20.868;2023-05-28T11:31:54;42.65;;;19.75;;
28960;SDS011;16068;42.896;20.868;2023-05-28T11:34:41;37.10;;;17.98;;
28960;SDS011;16068;42.896;20.868;2023-05-28T11:37:36;50.83;;;35.05;;
28960;SDS011;16068;42.896;20.868;2023-05-28T11:40:24;30.30;;;20.73;;
28960;SDS011;16068;42.896;20.868;2023-05-28T11:43:10;43.03;;;27.85;;
28960;SDS011;16068;42.896;20.868;2023-05-28T11:45:57;21.65;;;15.60;;
28960;SDS011;16068;42.896;20.868;2023-05-28T11:48:44;21.70;;;13.07;;
28960;SDS011;16068;42.896;20.868;2023-05-28T11:51:30;16.38;;;12.18;;
28960;SDS011;16068;42.896;20.868;2023-05-28T11:54:18;34.80;;;16.85;;
28960;SDS011;16068;42.896;20.868;2023-05-28T11:57:04;18.90;;;12.60;;
28960;SDS011;16068;42.896;20.868;2023-05-28T11:59:58;17.20;;;12.52;;
28960;SDS011;16068;42.896;20.868;2023-05-28T12:03:01;17.73;;;11.43;;
28960;SDS011;16068;42.896;20.868;2023-05-28T12:05:48;14.25;;;11.18;;
28960;SDS011;16068;42.896;20.868;2023-05-28T12:08:34;15.77;;;10.52;;
28960;SDS011;16068;42.896;20.868;2023-05-28T12:11:27;11.57;;;9.15;;
28960;SDS011;16068;42.896;20.868;2023-05-28T12:14:13;15.43;;;9.88;;
28960;SDS011;16068;42.896;20.868;2023-05-28T12:17:06;11.85;;;10.45;;
28960;SDS011;16068;42.896;20.868;2023-05-28T12:19:58;15.48;;;11.38;;
28960;SDS011;16068;42.896;20.868;2023-05-28T12:22:45;14.15;;;11.10;;
28960;SDS011;16068;42.896;20.868;2023-05-28T12:25:49;19.40;;;11.55;;
28960;SDS011;16068;42.896;20.868;2023-05-28T12:31:28;13.05;;;9.77;;
28960;SDS011;16068;42.896;20.868;2023-05-28T12:34:14;11.57;;;9.57;;
28960;SDS011;16068;42.896;20.868;2023-05-28T12:37:00;18.23;;;10.10;;
28960;SDS011;16068;42.896;20.868;2023-05-28T12:39:46;13.60;;;10.80;;
28960;SDS011;16068;42.896;20.868;2023-05-28T12:42:32;12.77;;;10.68;;
28960;SDS011;16068;42.896;20.868;2023-05-28T12:45:18;21.45;;;12.77;;
28960;SDS011;16068;42.896;20.868;2023-05-28T12:48:04;23.10;;;16.08;;
28960;SDS011;16068;42.896;20.868;2023-05-28T12:50:50;17.90;;;14.35;;
28960;SDS011;16068;42.896;20.868;2023-05-28T12:53:37;19.63;;;14.93;;
28960;SDS011;16068;42.896;20.868;2023-05-28T12:56:23;15.07;;;12.95;;
28960;SDS011;16068;42.896;20.868;2023-05-28T12:59:09;16.23;;;11.82;;
28960;SDS011;16068;42.896;20.868;2023-05-28T13:02:05;16.77;;;12.13;;
28960;SDS011;16068;42.896;20.868;2023-05-28T13:04:54;18.75;;;12.00;;
28960;SDS011;16068;42.896;20.868;2023-05-28T13:07:43;16.20;;;11.75;;
28960;SDS011;16068;42.896;20.868;2023-05-28T13:10:29;24.67;;;12.60;;
28960;SDS011;16068;42.896;20.868;2023-05-28T13:13:15;14.15;;;11.38;;
28960;SDS011;16068;42.896;20.868;2023-05-28T13:16:03;12.57;;;10.40;;
28960;SDS011;16068;42.896;20.868;2023-05-28T13:18:49;12.13;;;10.43;;
28960;SDS011;16068;42.896;20.868;2023-05-28T13:21:36;14.10;;;10.38;;
28960;SDS011;16068;42.896;20.868;2023-05-28T13:24:23;17.33;;;11.70;;
28960;SDS011;16068;42.896;20.868;2023-05-28T13:27:17;16.08;;;11.05;;
28960;SDS011;16068;42.896;20.868;2023-05-28T13:30:04;12.23;;;10.73;;
28960;SDS011;16068;42.896;20.868;2023-05-28T13:32:51;12.85;;;10.35;;
28960;SDS011;16068;42.896;20.868;2023-05-28T13:35:37;18.15;;;10.63;;
28960;SDS011;16068;42.896;20.868;2023-05-28T13:38:23;13.10;;;10.05;;
28960;SDS011;16068;42.896;20.868;2023-05-28T13:41:10;11.93;;;9.70;;
28960;SDS011;16068;42.896;20.868;2023-05-28T13:43:58;12.95;;;10.27;;
28960;SDS011;16068;42.896;20.868;2023-05-28T13:46:46;22.65;;;14.70;;
28960;SDS011;16068;42.896;20.868;2023-05-28T13:49:34;21.27;;;14.68;;
28960;SDS011;16068;42.896;20.868;2023-05-28T13:52:21;19.55;;;14.05;;
28960;SDS011;16068;42.896;20.868;2023-05-28T13:55:08;19.45;;;14.95;;
28960;SDS011;16068;42.896;20.868;2023-05-28T13:57:54;21.98;;;15.65;;
28960;SDS011;16068;42.896;20.868;2023-05-28T14:00:40;18.25;;;9.88;;
28960;SDS011;16068;42.896;20.868;2023-05-28T14:03:26;9.13;;;5.65;;
28960;SDS011;16068;42.896;20.868;2023-05-28T14:06:13;8.30;;;4.82;;
28960;SDS011;16068;42.896;20.868;2023-05-28T14:08:59;6.53;;;4.97;;
28960;SDS011;16068;42.896;20.868;2023-05-28T14:11:45;6.55;;;4.10;;
28960;SDS011;16068;42.896;20.868;2023-05-28T14:14:52;6.28;;;4.18;;
28960;SDS011;16068;42.896;20.868;2023-05-28T14:17:38;5.28;;;3.33;;
28960;SDS011;16068;42.896;20.868;2023-05-28T14:20:24;6.63;;;3.63;;
28960;SDS011;16068;42.896;20.868;2023-05-28T14:23:11;5.18;;;3.28;;
28960;SDS011;16068;42.896;20.868;2023-05-28T14:25:57;4.20;;;3.30;;
28960;SDS011;16068;42.896;20.868;2023-05-28T14:28:43;6.95;;;3.80;;
28960;SDS011;16068;42.896;20.868;2023-05-28T14:31:29;5.88;;;3.88;;
28960;SDS011;16068;42.896;20.868;2023-05-28T14:34:15;7.65;;;3.60;;
28960;SDS011;16068;42.896;20.868;2023-05-28T14:37:01;6.85;;;4.25;;
28960;SDS011;16068;42.896;20.868;2023-05-28T14:39:48;5.95;;;3.80;;
28960;SDS011;16068;42.896;20.868;2023-05-28T14:42:33;6.03;;;3.70;;
28960;SDS011;16068;42.896;20.868;2023-05-28T14:45:19;7.43;;;3.88;;
28960;SDS011;16068;42.896;20.868;2023-05-28T14:48:05;10.07;;;3.90;;
28960;SDS011;16068;42.896;20.868;2023-05-28T14:50:51;5.97;;;3.80;;
28960;SDS011;16068;42.896;20.868;2023-05-28T14:53:38;5.40;;;4.13;;
28960;SDS011;16068;42.896;20.868;2023-05-28T14:56:24;10.02;;;5.20;;
28960;SDS011;16068;42.896;20.868;2023-05-28T14:59:11;7.65;;;4.95;;
28960;SDS011;16068;42.896;20.868;2023-05-28T15:01:57;7.32;;;6.28;;
28960;SDS011;16068;42.896;20.868;2023-05-28T15:04:44;10.85;;;6.30;;
28960;SDS011;16068;42.896;20.868;2023-05-28T15:07:31;8.48;;;6.43;;
28960;SDS011;16068;42.896;20.868;2023-05-28T15:10:17;9.32;;;5.43;;
28960;SDS011;16068;42.896;20.868;2023-05-28T15:13:03;10.88;;;5.90;;
28960;SDS011;16068;42.896;20.868;2023-05-28T15:15:52;7.35;;;6.00;;
28960;SDS011;16068;42.896;20.868;2023-05-28T15:18:39;10.05;;;5.85;;
28960;SDS011;16068;42.896;20.868;2023-05-28T15:21:25;7.45;;;5.70;;
28960;SDS011;16068;42.896;20.868;2023-05-28T15:24:11;9.35;;;6.03;;
28960;SDS011;16068;42.896;20.868;2023-05-28T15:26:57;7.95;;;5.32;;
28960;SDS011;16068;42.896;20.868;2023-05-28T15:29:43;5.50;;;4.90;;
28960;SDS011;16068;42.896;20.868;2023-05-28T15:32:30;12.07;;;5.40;;
28960;SDS011;16068;42.896;20.868;2023-05-28T15:35:17;7.72;;;5.30;;
28960;SDS011;16068;42.896;20.868;2023-05-28T15:38:03;11.15;;;5.63;;
28960;SDS011;16068;42.896;20.868;2023-05-28T15:40:49;6.32;;;5.32;;
28960;SDS011;16068;42.896;20.868;2023-05-28T15:43:36;9.25;;;5.38;;
28960;SDS011;16068;42.896;20.868;2023-05-28T15:46:25;6.55;;;5.03;;
28960;SDS011;16068;42.896;20.868;2023-05-28T15:49:12;10.27;;;5.55;;
28960;SDS011;16068;42.896;20.868;2023-05-28T15:51:58;8.00;;;5.15;;
28960;SDS011;16068;42.896;20.868;2023-05-28T15:54:44;8.38;;;4.90;;
28960;SDS011;16068;42.896;20.868;2023-05-28T15:57:31;6.68;;;4.90;;
28960;SDS011;16068;42.896;20.868;2023-05-28T16:00:17;9.00;;;5.18;;
28960;SDS011;16068;42.896;20.868;2023-05-28T16:03:03;8.63;;;5.22;;
28960;SDS011;16068;42.896;20.868;2023-05-28T16:05:50;7.97;;;5.40;;
28960;SDS011;16068;42.896;20.868;2023-05-28T16:08:37;7.47;;;5.45;;
28960;SDS011;16068;42.896;20.868;2023-05-28T16:11:24;6.28;;;4.80;;
28960;SDS011;16068;42.896;20.868;2023-05-28T16:14:14;8.93;;;5.65;;
28960;SDS011;16068;42.896;20.868;2023-05-28T16:17:03;6.85;;;4.95;;
28960;SDS011;16068;42.896;20.868;2023-05-28T16:19:50;7.68;;;4.65;;
28960;SDS011;16068;42.896;20.868;2023-05-28T16:22:37;8.75;;;5.15;;
28960;SDS011;16068;42.896;20.868;2023-05-28T16:25:24;8.23;;;4.65;;
28960;SDS011;16068;42.896;20.868;2023-05-28T16:28:10;6.53;;;5.00;;